createdAt,value
2023-04-28T00:00:21.015Z,2.83
2023-04-28T00:04:22.965Z,6.25
2023-04-28T00:08:27.325Z,3.78
2023-04-28T00:12:29.118Z,3.22
2023-04-28T00:16:30.990Z,3.55
2023-04-28T00:20:32.661Z,4.22
2023-04-28T00:24:36.356Z,6.25
2023-04-28T00:28:38.603Z,3.30
2023-04-28T00:32:40.493Z,3.15
2023-04-28T00:36:42.885Z,2.15
2023-04-28T00:40:44.568Z,3.97
2023-04-28T00:44:46.289Z,3.80
2023-04-28T00:48:49.208Z,4.35
2023-04-28T00:56:54.850Z,8.13
2023-04-28T01:01:03.948Z,3.00
2023-04-28T01:05:05.912Z,4.68
2023-04-28T01:09:08.702Z,4.70
2023-04-28T01:13:11.387Z,2.92
2023-04-28T01:17:13.855Z,5.25
2023-04-28T01:21:26.219Z,5.18
2023-04-28T01:25:27.906Z,6.07
2023-04-28T01:29:29.756Z,3.65
2023-04-28T01:33:31.457Z,5.80
2023-04-28T01:37:33.171Z,5.05
2023-04-28T01:41:35.894Z,3.35
2023-04-28T01:45:39.021Z,2.67
2023-04-28T01:49:40.793Z,3.17
2023-04-28T01:53:43.017Z,9.10
2023-04-28T01:57:44.785Z,4.97
2023-04-28T02:01:46.826Z,6.03
2023-04-28T02:05:49.411Z,6.93
2023-04-28T02:09:51.217Z,8.77
2023-04-28T02:13:52.866Z,7.18
2023-04-28T02:17:54.677Z,5.20
2023-04-28T02:21:56.383Z,5.90
2023-04-28T02:26:01.765Z,6.78
2023-04-28T02:30:05.583Z,2.97
2023-04-28T02:34:08.845Z,8.25
2023-04-28T02:38:10.506Z,4.95
2023-04-28T02:42:12.279Z,4.55
2023-04-28T02:46:14.869Z,8.95
2023-04-28T02:50:17.205Z,7.63
2023-04-28T02:54:27.621Z,6.90
2023-04-28T02:58:30.482Z,5.63
2023-04-28T03:02:32.196Z,5.63
2023-04-28T03:06:34.051Z,4.47
2023-04-28T03:10:35.808Z,5.57
2023-04-28T03:14:38.697Z,5.35
2023-04-28T03:18:40.549Z,5.85
2023-04-28T03:22:42.877Z,4.78
2023-04-28T03:26:44.715Z,6.82
2023-04-28T03:30:47.284Z,6.35
2023-04-28T03:34:48.924Z,4.43
2023-04-28T03:38:50.604Z,10.20
2023-04-28T03:42:52.381Z,5.00
2023-04-28T03:47:01.834Z,5.30
2023-04-28T03:51:04.156Z,6.43
2023-04-28T03:55:06.999Z,7.93
2023-04-28T03:59:11.837Z,10.25
2023-04-28T04:03:14.845Z,5.53
2023-04-28T04:07:18.812Z,5.20
2023-04-28T04:11:21.040Z,5.18
2023-04-28T04:15:23.763Z,7.63
2023-04-28T04:19:26.669Z,6.63
2023-04-28T04:23:30.157Z,5.70
2023-04-28T04:27:31.933Z,6.28
2023-04-28T04:31:34.791Z,7.63
2023-04-28T04:35:37.749Z,8.73
2023-04-28T04:39:39.911Z,7.53
2023-04-28T04:43:41.586Z,11.37
2023-04-28T04:47:44.865Z,10.23
2023-04-28T04:51:46.774Z,8.40
2023-04-28T04:55:48.576Z,8.15
2023-04-28T04:59:53.749Z,9.70
2023-04-28T05:03:57.364Z,7.40
2023-04-28T05:07:59.388Z,9.98
2023-04-28T05:12:01.829Z,10.38
2023-04-28T05:16:06.041Z,7.18
2023-04-28T05:20:33.815Z,9.00
2023-04-28T05:24:37.214Z,9.32
2023-04-28T05:28:41.817Z,8.23
2023-04-28T05:32:45.761Z,7.65
2023-04-28T05:36:49.946Z,8.43
2023-04-28T05:40:54.634Z,9.35
2023-04-28T05:44:57.833Z,6.60
2023-04-28T05:49:00.148Z,7.13
2023-04-28T05:53:07.767Z,9.45
2023-04-28T05:57:09.617Z,8.38
2023-04-28T06:01:14.218Z,11.60
2023-04-28T06:05:16.197Z,10.43
2023-04-28T06:09:19.358Z,10.32
2023-04-28T06:13:21.936Z,11.07
2023-04-28T06:17:25.846Z,14.38
2023-04-28T06:21:29.820Z,9.40
2023-04-28T06:25:32.907Z,13.20
2023-04-28T06:29:35.247Z,14.77
2023-04-28T06:33:37.021Z,12.32
2023-04-28T06:37:40.829Z,11.68
2023-04-28T06:41:44.894Z,11.52
2023-04-28T06:45:50.535Z,14.85
2023-04-28T06:49:54.819Z,15.80
2023-04-28T06:53:57.393Z,14.60
2023-04-28T06:57:59.264Z,15.93
2023-04-28T07:02:01.379Z,17.23
2023-04-28T07:06:04.690Z,13.77
2023-04-28T07:10:07.257Z,15.27
2023-04-28T07:14:11.832Z,14.70
2023-04-28T07:18:14.317Z,17.85
2023-04-28T07:26:20.131Z,20.38
2023-04-28T07:30:28.073Z,17.10
2023-04-28T07:34:31.454Z,17.17
2023-04-28T07:38:36.796Z,15.07
2023-04-28T07:42:39.217Z,17.60
2023-04-28T07:46:43.867Z,18.38
2023-04-28T07:50:46.348Z,14.15
2023-04-28T07:54:48.079Z,16.20
2023-04-28T07:58:50.236Z,16.57
2023-04-28T08:02:55.474Z,15.90
2023-04-28T08:06:57.233Z,14.10
2023-04-28T08:10:59.372Z,18.27
2023-04-28T08:15:01.804Z,15.98
2023-04-28T08:19:03.468Z,14.48
2023-04-28T08:23:05.170Z,14.63
2023-04-28T08:27:07.818Z,14.00
2023-04-28T08:31:09.492Z,12.93
2023-04-28T08:35:13.313Z,14.55
2023-04-28T08:39:15.807Z,13.93
2023-04-28T08:43:17.956Z,14.85
2023-04-28T08:47:22.762Z,17.50
2023-04-28T08:51:40.960Z,17.92
2023-04-28T08:55:44.713Z,16.88
2023-04-28T08:59:50.802Z,18.60
2023-04-28T09:03:54.933Z,16.38
2023-04-28T09:07:57.162Z,15.15
2023-04-28T09:12:05.106Z,16.08
2023-04-28T09:16:08.924Z,16.55
2023-04-28T09:20:28.533Z,17.63
2023-04-28T09:24:32.427Z,19.05
2023-04-28T09:28:36.282Z,18.05
2023-04-28T09:32:40.490Z,16.92
2023-04-28T09:36:43.319Z,18.42
2023-04-28T09:40:58.657Z,15.27
2023-04-28T09:45:14.894Z,15.23
2023-04-28T09:49:16.663Z,17.40
2023-04-28T09:53:19.994Z,19.88
2023-04-28T09:57:22.590Z,19.75
2023-04-28T10:01:25.873Z,17.63
2023-04-28T10:05:28.952Z,16.45
2023-04-28T10:09:32.680Z,16.67
2023-04-28T10:13:37.012Z,18.80
2023-04-28T10:17:40.845Z,16.50
2023-04-28T10:22:08.796Z,19.40
2023-04-28T10:26:12.856Z,19.77
2023-04-28T10:30:27.589Z,18.83
2023-04-28T10:34:31.432Z,17.73
2023-04-28T10:38:35.888Z,16.60
2023-04-28T10:42:54.629Z,18.17
2023-04-28T10:47:08.007Z,17.55
2023-04-28T10:51:15.843Z,19.23
2023-04-28T10:55:27.204Z,16.95
2023-04-28T10:59:30.876Z,16.15
2023-04-28T11:03:52.059Z,19.35
2023-04-28T11:08:27.022Z,19.05
2023-04-28T11:12:29.803Z,17.00
2023-04-28T11:16:33.174Z,19.08
2023-04-28T11:20:38.791Z,19.90
2023-04-28T11:24:40.993Z,21.05
2023-04-28T11:28:56.998Z,22.42
2023-04-28T11:32:58.845Z,18.63
2023-04-28T11:37:01.520Z,18.17
2023-04-28T11:41:04.367Z,20.75
2023-04-28T11:45:08.818Z,20.37
2023-04-28T11:49:12.749Z,21.80
2023-04-28T11:53:14.950Z,16.60
2023-04-28T11:57:21.765Z,17.27
2023-04-28T12:01:24.807Z,17.20
2023-04-28T12:05:27.202Z,14.77
2023-04-28T12:09:29.331Z,16.75
2023-04-28T12:13:32.325Z,17.63
2023-04-28T12:17:35.811Z,15.30
2023-04-28T12:21:39.602Z,16.00
2023-04-28T12:25:46.429Z,16.27
2023-04-28T12:29:48.830Z,15.55
2023-04-28T12:33:50.808Z,17.20
2023-04-28T12:37:53.813Z,16.37
2023-04-28T12:41:56.088Z,14.68
2023-04-28T12:45:58.527Z,13.85
2023-04-28T12:50:01.044Z,9.68
2023-04-28T12:54:02.799Z,10.67
2023-04-28T12:58:06.592Z,8.67
2023-04-28T13:02:09.851Z,6.85
2023-04-28T13:06:12.811Z,6.20
2023-04-28T13:10:16.019Z,5.93
2023-04-28T13:14:19.326Z,6.85
2023-04-28T13:18:21.889Z,5.38
2023-04-28T13:26:27.316Z,6.03
2023-04-28T13:30:29.811Z,4.83
2023-04-28T13:34:33.404Z,4.95
2023-04-28T13:38:35.827Z,6.20
2023-04-28T13:42:39.113Z,5.15
2023-04-28T13:46:42.682Z,6.72
2023-04-28T13:50:44.557Z,6.55
2023-04-28T13:54:46.449Z,5.90
2023-04-28T13:58:49.206Z,4.53
2023-04-28T14:02:53.041Z,4.55
2023-04-28T14:06:55.219Z,4.63
2023-04-28T14:10:58.677Z,4.07
2023-04-28T14:15:00.333Z,9.93
2023-04-28T14:19:02.815Z,6.85
2023-04-28T14:23:05.110Z,4.78
2023-04-28T14:27:07.577Z,5.20
2023-04-28T14:31:09.506Z,2.22
2023-04-28T14:35:13.034Z,2.00
2023-04-28T14:39:15.826Z,3.47
2023-04-28T14:43:17.807Z,2.63
2023-04-28T14:47:19.493Z,1.40
2023-04-28T14:51:22.813Z,2.53
2023-04-28T14:55:26.786Z,1.65
2023-04-28T14:59:28.602Z,2.33
2023-04-28T15:03:30.634Z,2.00
2023-04-28T15:07:32.798Z,0.88
2023-04-28T15:11:35.187Z,1.05
2023-04-28T15:15:37.812Z,1.37
2023-04-28T15:23:41.483Z,2.83
2023-04-28T15:27:43.660Z,1.33
2023-04-28T15:31:45.696Z,3.20
2023-04-28T15:35:47.449Z,3.80
2023-04-28T15:39:49.809Z,0.85
2023-04-28T15:43:52.207Z,2.17
2023-04-28T15:47:55.255Z,4.30
2023-04-28T15:55:59.838Z,1.02
2023-04-28T16:00:01.795Z,3.20
2023-04-28T16:04:09.618Z,0.77
2023-04-28T16:08:11.746Z,1.52
2023-04-28T16:12:14.118Z,2.45
2023-04-28T16:16:16.059Z,3.60
2023-04-28T16:20:18.574Z,1.45
2023-04-28T16:24:24.147Z,1.25
2023-04-28T16:28:27.149Z,0.60
2023-04-28T16:32:29.349Z,7.13
2023-04-28T16:36:34.602Z,1.50
2023-04-28T16:40:36.814Z,1.67
2023-04-28T16:44:38.871Z,3.35
2023-04-28T16:52:58.497Z,2.95
2023-04-28T16:57:05.917Z,1.60
2023-04-28T17:01:08.237Z,1.55
2023-04-28T17:05:11.823Z,2.55
2023-04-28T17:09:13.907Z,2.35
2023-04-28T17:13:17.558Z,6.03
2023-04-28T17:17:19.366Z,2.85
2023-04-28T17:21:21.307Z,4.73
2023-04-28T17:25:26.487Z,4.90
2023-04-28T17:29:29.814Z,6.38
2023-04-28T17:33:34.259Z,2.95
2023-04-28T17:37:37.287Z,4.40
2023-04-28T17:41:40.404Z,3.10
2023-04-28T17:45:42.860Z,5.88
2023-04-28T17:49:46.820Z,3.47
2023-04-28T17:53:49.037Z,2.60
2023-04-28T17:57:52.894Z,3.53
2023-04-28T18:01:56.450Z,1.83
2023-04-28T18:05:59.811Z,2.58
2023-04-28T18:10:03.769Z,4.93
2023-04-28T18:14:10.903Z,4.70
2023-04-28T18:18:13.828Z,3.13
2023-04-28T18:22:19.832Z,0.77
2023-04-28T18:30:26.808Z,2.13
2023-04-28T18:34:30.087Z,4.72
2023-04-28T18:38:34.576Z,11.07
2023-04-28T18:42:37.030Z,6.05
2023-04-28T18:46:38.762Z,5.80
2023-04-28T18:50:42.881Z,8.75
2023-04-28T18:54:44.995Z,6.18
2023-04-28T18:58:47.977Z,5.30
2023-04-28T19:02:49.951Z,6.05
2023-04-28T19:06:52.223Z,8.25
2023-04-28T19:10:54.236Z,7.77
2023-04-28T19:14:56.804Z,5.15
2023-04-28T19:18:58.803Z,8.48
2023-04-28T19:23:03.978Z,7.10
2023-04-28T19:27:05.814Z,6.90
2023-04-28T19:31:08.730Z,6.18
2023-04-28T19:35:14.690Z,4.88
2023-04-28T19:39:16.567Z,7.40
2023-04-28T19:43:18.473Z,5.03
2023-04-28T19:47:24.868Z,6.53
2023-04-28T19:51:28.005Z,4.85
2023-04-28T19:55:32.147Z,6.18
2023-04-28T19:59:34.034Z,4.85
2023-04-28T20:03:36.965Z,3.85
2023-04-28T20:07:39.873Z,4.60
2023-04-28T20:11:42.298Z,4.30
2023-04-28T20:16:18.075Z,2.58
2023-04-28T20:20:50.652Z,3.65
2023-04-28T20:24:54.658Z,14.38
2023-04-28T20:28:57.295Z,8.53
2023-04-28T20:33:01.604Z,2.72
2023-04-28T20:37:04.866Z,5.00
2023-04-28T20:41:07.872Z,5.28
2023-04-28T20:45:14.468Z,5.55
2023-04-28T20:49:16.137Z,4.88
2023-04-28T20:53:17.850Z,3.28
2023-04-28T20:57:19.691Z,4.60
2023-04-28T21:01:21.928Z,5.07
2023-04-28T21:05:24.802Z,5.38
2023-04-28T21:13:29.630Z,3.97
2023-04-28T21:21:34.566Z,8.20
2023-04-28T21:25:38.353Z,5.45
2023-04-28T21:29:42.894Z,4.95
2023-04-28T21:39:09.279Z,6.10
2023-04-28T21:43:13.738Z,6.00
2023-04-28T21:47:21.975Z,8.50
2023-04-28T21:51:24.003Z,10.07
2023-04-28T21:55:26.625Z,8.97
2023-04-28T21:59:34.637Z,9.10
2023-04-28T22:08:37.883Z,13.50
2023-04-28T22:17:03.936Z,12.73
2023-04-28T22:25:40.172Z,14.18
2023-04-28T22:29:43.467Z,11.80
2023-04-28T22:33:45.146Z,13.02
2023-04-28T22:37:48.623Z,12.75
2023-04-28T22:41:51.618Z,16.73
2023-04-28T22:45:54.086Z,12.30
2023-04-28T22:49:57.424Z,14.32
2023-04-28T22:54:02.433Z,13.73
2023-04-28T22:58:06.635Z,9.30
2023-04-28T23:02:10.097Z,9.98
2023-04-28T23:06:13.902Z,13.02
2023-04-28T23:10:19.201Z,9.48
2023-04-28T23:14:20.914Z,15.97
2023-04-28T23:18:22.783Z,12.77
2023-04-28T23:22:24.685Z,20.10
2023-04-28T23:26:26.515Z,12.18
2023-04-28T23:30:28.453Z,13.88
2023-04-28T23:34:32.826Z,12.45
2023-04-28T23:38:35.348Z,17.35
2023-04-28T23:42:37.420Z,12.90
2023-04-28T23:46:39.332Z,12.93
2023-04-28T23:50:40.958Z,11.52
